sensor_id;sensor_type;location;lat;lon;timestamp;pressure;altitude;pressure_sealevel;temperature;humidity
22550;BME280;11441;57.164;-2.120;2022-08-11T00:00:12;101758.91;;;19.76;100.00
22550;BME280;11441;57.164;-2.120;2022-08-11T00:02:49;101761.38;;;19.92;100.00
22550;BME280;11441;57.164;-2.120;2022-08-11T00:05:20;101761.59;;;19.58;100.00
22550;BME280;11441;57.164;-2.120;2022-08-11T00:08:06;101771.53;;;19.48;100.00
22550;BME280;11441;57.164;-2.120;2022-08-11T00:10:54;101761.84;;;19.35;100.00
22550;BME280;11441;57.164;-2.120;2022-08-11T00:13:38;101761.09;;;19.41;100.00
22550;BME280;11441;57.164;-2.120;2022-08-11T00:16:13;101761.13;;;19.45;100.00
22550;BME280;11441;57.164;-2.120;2022-08-11T00:18:42;101761.47;;;19.36;100.00
22550;BME280;11441;57.164;-2.120;2022-08-11T00:21:11;101758.34;;;19.52;100.00
22550;BME280;11441;57.164;-2.120;2022-08-11T00:23:59;101753.22;;;19.58;100.00
22550;BME280;11441;57.164;-2.120;2022-08-11T00:26:27;101762.44;;;18.99;100.00
22550;BME280;11441;57.164;-2.120;2022-08-11T00:28:55;101769.28;;;18.61;100.00
22550;BME280;11441;57.164;-2.120;2022-08-11T00:31:28;101763.03;;;18.78;100.00
22550;BME280;11441;57.164;-2.120;2022-08-11T00:33:58;101755.25;;;18.98;100.00
22550;BME280;11441;57.164;-2.120;2022-08-11T00:36:49;101758.16;;;19.16;100.00
22550;BME280;11441;57.164;-2.120;2022-08-11T00:39:20;101756.03;;;18.95;100.00
22550;BME280;11441;57.164;-2.120;2022-08-11T00:45:13;101753.28;;;18.58;100.00
22550;BME280;11441;57.164;-2.120;2022-08-11T00:47:55;101750.31;;;18.81;100.00
22550;BME280;11441;57.164;-2.120;2022-08-11T00:53:48;101751.78;;;18.68;100.00
22550;BME280;11441;57.164;-2.120;2022-08-11T01:02:18;101751.75;;;18.64;100.00
22550;BME280;11441;57.164;-2.120;2022-08-11T01:45:31;101739.13;;;18.33;100.00
22550;BME280;11441;57.164;-2.120;2022-08-11T01:48:42;101730.50;;;17.74;100.00
22550;BME280;11441;57.164;-2.120;2022-08-11T01:53:55;101738.41;;;18.39;100.00
22550;BME280;11441;57.164;-2.120;2022-08-11T01:56:45;101728.97;;;18.14;100.00
22550;BME280;11441;57.164;-2.120;2022-08-11T02:05:25;101739.47;;;17.60;100.00
22550;BME280;11441;57.164;-2.120;2022-08-11T02:11:44;101752.78;;;18.07;100.00
22550;BME280;11441;57.164;-2.120;2022-08-11T02:17:14;101748.78;;;18.05;100.00
22550;BME280;11441;57.164;-2.120;2022-08-11T02:23:32;101758.75;;;18.06;100.00
22550;BME280;11441;57.164;-2.120;2022-08-11T02:26:39;101756.81;;;18.10;100.00
22550;BME280;11441;57.164;-2.120;2022-08-11T02:29:28;101751.22;;;18.06;100.00
22550;BME280;11441;57.164;-2.120;2022-08-11T02:32:18;101762.22;;;17.96;100.00
22550;BME280;11441;57.164;-2.120;2022-08-11T02:40:47;101765.03;;;17.69;100.00
22550;BME280;11441;57.164;-2.120;2022-08-11T02:43:34;101763.50;;;17.14;100.00
22550;BME280;11441;57.164;-2.120;2022-08-11T02:46:35;101758.69;;;17.11;100.00
22550;BME280;11441;57.164;-2.120;2022-08-11T02:49:32;101751.00;;;17.05;100.00
22550;BME280;11441;57.164;-2.120;2022-08-11T02:52:50;101752.66;;;17.36;100.00
22550;BME280;11441;57.164;-2.120;2022-08-11T02:55:31;101752.84;;;17.47;100.00
22550;BME280;11441;57.164;-2.120;2022-08-11T03:01:41;101748.19;;;17.58;100.00
22550;BME280;11441;57.164;-2.120;2022-08-11T03:04:14;101750.81;;;17.44;100.00
22550;BME280;11441;57.164;-2.120;2022-08-11T03:06:49;101744.53;;;17.50;100.00
22550;BME280;11441;57.164;-2.120;2022-08-11T03:09:43;101749.00;;;17.59;100.00
22550;BME280;11441;57.164;-2.120;2022-08-11T03:12:17;101751.91;;;17.09;100.00
22550;BME280;11441;57.164;-2.120;2022-08-11T03:21:29;101747.41;;;16.77;100.00
22550;BME280;11441;57.164;-2.120;2022-08-11T03:24:30;101741.66;;;16.67;100.00
22550;BME280;11441;57.164;-2.120;2022-08-11T03:33:49;101735.16;;;17.05;100.00
22550;BME280;11441;57.164;-2.120;2022-08-11T03:42:32;101734.69;;;17.03;100.00
22550;BME280;11441;57.164;-2.120;2022-08-11T03:56:01;101713.63;;;17.02;100.00
22550;BME280;11441;57.164;-2.120;2022-08-11T03:59:14;101710.03;;;16.78;100.00
22550;BME280;11441;57.164;-2.120;2022-08-11T04:33:06;101696.03;;;16.02;100.00
22550;BME280;11441;57.164;-2.120;2022-08-11T04:47:47;101694.72;;;15.96;100.00
22550;BME280;11441;57.164;-2.120;2022-08-11T04:51:05;101705.13;;;15.99;100.00
22550;BME280;11441;57.164;-2.120;2022-08-11T04:57:20;101703.16;;;15.80;100.00
22550;BME280;11441;57.164;-2.120;2022-08-11T05:00:09;101697.44;;;15.73;100.00
22550;BME280;11441;57.164;-2.120;2022-08-11T05:09:13;101708.22;;;16.17;100.00
22550;BME280;11441;57.164;-2.120;2022-08-11T05:14:26;101703.66;;;16.51;100.00
22550;BME280;11441;57.164;-2.120;2022-08-11T05:17:15;101700.63;;;16.60;100.00
22550;BME280;11441;57.164;-2.120;2022-08-11T05:20:09;101699.41;;;16.34;100.00
22550;BME280;11441;57.164;-2.120;2022-08-11T05:23:04;101696.00;;;16.45;100.00
22550;BME280;11441;57.164;-2.120;2022-08-11T05:26:08;101704.25;;;16.64;100.00
22550;BME280;11441;57.164;-2.120;2022-08-11T05:32:41;101698.53;;;16.53;100.00
22550;BME280;11441;57.164;-2.120;2022-08-11T05:35:38;101698.66;;;16.61;100.00
22550;BME280;11441;57.164;-2.120;2022-08-11T05:38:29;101702.53;;;16.79;100.00
22550;BME280;11441;57.164;-2.120;2022-08-11T05:41:19;101702.34;;;16.91;100.00
22550;BME280;11441;57.164;-2.120;2022-08-11T05:44:05;101698.03;;;16.98;100.00
22550;BME280;11441;57.164;-2.120;2022-08-11T05:46:52;101696.19;;;17.05;100.00
22550;BME280;11441;57.164;-2.120;2022-08-11T05:49:56;101700.09;;;17.01;100.00
22550;BME280;11441;57.164;-2.120;2022-08-11T05:52:45;101689.25;;;17.22;100.00
22550;BME280;11441;57.164;-2.120;2022-08-11T05:55:41;101692.84;;;17.23;100.00
22550;BME280;11441;57.164;-2.120;2022-08-11T05:58:38;101691.38;;;17.32;100.00
22550;BME280;11441;57.164;-2.120;2022-08-11T06:01:11;101693.50;;;17.12;100.00
22550;BME280;11441;57.164;-2.120;2022-08-11T06:03:42;101689.47;;;17.10;100.00
22550;BME280;11441;57.164;-2.120;2022-08-11T06:06:29;101686.97;;;17.01;100.00
22550;BME280;11441;57.164;-2.120;2022-08-11T06:08:57;101685.06;;;17.05;100.00
22550;BME280;11441;57.164;-2.120;2022-08-11T06:11:25;101685.56;;;17.14;100.00
22550;BME280;11441;57.164;-2.120;2022-08-11T06:14:10;101687.06;;;17.08;100.00
22550;BME280;11441;57.164;-2.120;2022-08-11T06:16:42;101691.97;;;17.19;100.00
22550;BME280;11441;57.164;-2.120;2022-08-11T06:19:09;101689.88;;;17.39;100.00
22550;BME280;11441;57.164;-2.120;2022-08-11T06:21:37;101691.50;;;17.43;100.00
22550;BME280;11441;57.164;-2.120;2022-08-11T06:24:13;101689.53;;;17.44;100.00
22550;BME280;11441;57.164;-2.120;2022-08-11T06:27:00;101688.34;;;17.45;100.00
22550;BME280;11441;57.164;-2.120;2022-08-11T06:29:49;101688.59;;;17.63;100.00
22550;BME280;11441;57.164;-2.120;2022-08-11T06:32:33;101684.78;;;17.78;100.00
22550;BME280;11441;57.164;-2.120;2022-08-11T06:35:14;101681.75;;;17.90;100.00
22550;BME280;11441;57.164;-2.120;2022-08-11T06:43:19;101689.63;;;18.22;100.00
22550;BME280;11441;57.164;-2.120;2022-08-11T06:46:07;101678.19;;;18.35;100.00
22550;BME280;11441;57.164;-2.120;2022-08-11T06:48:38;101675.00;;;18.33;100.00
22550;BME280;11441;57.164;-2.120;2022-08-11T06:51:08;101679.00;;;18.39;100.00
22550;BME280;11441;57.164;-2.120;2022-08-11T06:53:56;101678.19;;;18.35;100.00
22550;BME280;11441;57.164;-2.120;2022-08-11T06:56:34;101674.75;;;18.52;100.00
22550;BME280;11441;57.164;-2.120;2022-08-11T06:59:59;101681.72;;;18.76;100.00
22550;BME280;11441;57.164;-2.120;2022-08-11T07:02:51;101677.72;;;18.77;100.00
22550;BME280;11441;57.164;-2.120;2022-08-11T07:05:30;101675.41;;;18.83;100.00
22550;BME280;11441;57.164;-2.120;2022-08-11T07:08:12;101680.19;;;18.82;100.00
22550;BME280;11441;57.164;-2.120;2022-08-11T07:14:00;101668.28;;;18.93;100.00
22550;BME280;11441;57.164;-2.120;2022-08-11T07:17:07;101690.00;;;19.21;98.78
22550;BME280;11441;57.164;-2.120;2022-08-11T07:19:38;101686.69;;;19.05;98.19
22550;BME280;11441;57.164;-2.120;2022-08-11T07:22:56;101690.78;;;19.18;100.00
22550;BME280;11441;57.164;-2.120;2022-08-11T07:25:46;101685.78;;;18.86;100.00
22550;BME280;11441;57.164;-2.120;2022-08-11T07:28:36;101687.94;;;19.11;100.00
22550;BME280;11441;57.164;-2.120;2022-08-11T07:31:42;101689.94;;;19.17;100.00
22550;BME280;11441;57.164;-2.120;2022-08-11T07:34:33;101691.59;;;19.22;100.00
22550;BME280;11441;57.164;-2.120;2022-08-11T07:37:09;101680.00;;;19.16;100.00
22550;BME280;11441;57.164;-2.120;2022-08-11T07:39:41;101674.78;;;19.11;100.00
22550;BME280;11441;57.164;-2.120;2022-08-11T07:42:14;101677.63;;;19.22;100.00
22550;BME280;11441;57.164;-2.120;2022-08-11T07:44:41;101675.63;;;19.26;100.00
22550;BME280;11441;57.164;-2.120;2022-08-11T07:47:28;101673.25;;;19.21;100.00
22550;BME280;11441;57.164;-2.120;2022-08-11T07:50:14;101671.69;;;19.34;100.00
22550;BME280;11441;57.164;-2.120;2022-08-11T07:53:01;101671.75;;;19.49;99.83
22550;BME280;11441;57.164;-2.120;2022-08-11T07:55:29;101663.78;;;19.47;98.54
22550;BME280;11441;57.164;-2.120;2022-08-11T07:58:36;101663.78;;;19.51;98.59
22550;BME280;11441;57.164;-2.120;2022-08-11T08:01:33;101670.63;;;19.68;98.32
22550;BME280;11441;57.164;-2.120;2022-08-11T08:04:19;101658.31;;;19.76;96.40
22550;BME280;11441;57.164;-2.120;2022-08-11T08:07:08;101657.53;;;19.90;94.29
22550;BME280;11441;57.164;-2.120;2022-08-11T08:09:56;101651.97;;;19.97;91.79
22550;BME280;11441;57.164;-2.120;2022-08-11T08:12:41;101655.53;;;19.87;92.16
22550;BME280;11441;57.164;-2.120;2022-08-11T08:15:47;101648.78;;;20.16;91.62
22550;BME280;11441;57.164;-2.120;2022-08-11T08:18:33;101647.19;;;20.33;87.20
22550;BME280;11441;57.164;-2.120;2022-08-11T08:21:04;101643.22;;;20.34;87.70
22550;BME280;11441;57.164;-2.120;2022-08-11T08:23:40;101639.19;;;20.46;90.36
22550;BME280;11441;57.164;-2.120;2022-08-11T08:26:10;101640.78;;;20.62;100.00
22550;BME280;11441;57.164;-2.120;2022-08-11T08:29:00;101636.78;;;20.56;99.02
22550;BME280;11441;57.164;-2.120;2022-08-11T08:31:47;101639.59;;;20.70;98.37
22550;BME280;11441;57.164;-2.120;2022-08-11T08:34:15;101639.22;;;20.64;96.99
22550;BME280;11441;57.164;-2.120;2022-08-11T08:36:48;101638.00;;;20.65;99.59
22550;BME280;11441;57.164;-2.120;2022-08-11T08:39:19;101638.00;;;20.76;93.49
22550;BME280;11441;57.164;-2.120;2022-08-11T08:42:08;101633.59;;;20.75;96.30
22550;BME280;11441;57.164;-2.120;2022-08-11T08:44:52;101639.97;;;20.79;93.93
22550;BME280;11441;57.164;-2.120;2022-08-11T08:47:23;101637.16;;;20.86;91.23
22550;BME280;11441;57.164;-2.120;2022-08-11T08:50:20;101632.41;;;20.76;93.19
22550;BME280;11441;57.164;-2.120;2022-08-11T08:53:02;101623.59;;;20.81;88.68
22550;BME280;11441;57.164;-2.120;2022-08-11T08:55:31;101634.72;;;21.06;91.50
22550;BME280;11441;57.164;-2.120;2022-08-11T08:57:59;101633.94;;;20.95;90.54
22550;BME280;11441;57.164;-2.120;2022-08-11T09:00:39;101634.69;;;21.10;91.24
22550;BME280;11441;57.164;-2.120;2022-08-11T09:03:07;101630.66;;;21.18;93.69
22550;BME280;11441;57.164;-2.120;2022-08-11T09:05:54;101627.88;;;21.18;96.95
22550;BME280;11441;57.164;-2.120;2022-08-11T09:08:43;101629.06;;;21.14;100.00
22550;BME280;11441;57.164;-2.120;2022-08-11T09:11:12;101623.06;;;21.19;99.86
22550;BME280;11441;57.164;-2.120;2022-08-11T09:14:00;101620.72;;;21.06;98.29
22550;BME280;11441;57.164;-2.120;2022-08-11T09:16:35;101623.47;;;21.17;98.91
22550;BME280;11441;57.164;-2.120;2022-08-11T09:19:02;101620.59;;;21.32;99.22
22550;BME280;11441;57.164;-2.120;2022-08-11T09:21:30;101619.38;;;21.36;100.00
22550;BME280;11441;57.164;-2.120;2022-08-11T09:24:17;101617.44;;;21.22;100.00
22550;BME280;11441;57.164;-2.120;2022-08-11T09:27:06;101612.53;;;21.52;100.00
22550;BME280;11441;57.164;-2.120;2022-08-11T09:29:34;101610.53;;;21.49;98.35
22550;BME280;11441;57.164;-2.120;2022-08-11T09:32:03;101593.25;;;21.61;100.00
22550;BME280;11441;57.164;-2.120;2022-08-11T09:34:34;101601.88;;;21.88;100.00
22550;BME280;11441;57.164;-2.120;2022-08-11T09:37:03;101599.09;;;21.88;100.00
22550;BME280;11441;57.164;-2.120;2022-08-11T09:40:10;101602.66;;;21.92;96.30
22550;BME280;11441;57.164;-2.120;2022-08-11T09:43:01;101602.25;;;21.94;100.00
22550;BME280;11441;57.164;-2.120;2022-08-11T09:45:50;101597.28;;;22.12;98.44
22550;BME280;11441;57.164;-2.120;2022-08-11T09:48:22;101598.72;;;22.35;94.67
22550;BME280;11441;57.164;-2.120;2022-08-11T09:50:52;101586.25;;;22.39;91.30
22550;BME280;11441;57.164;-2.120;2022-08-11T09:53:20;101584.47;;;22.56;90.71
22550;BME280;11441;57.164;-2.120;2022-08-11T09:56:10;101586.75;;;22.69;85.81
22550;BME280;11441;57.164;-2.120;2022-08-11T09:58:57;101583.69;;;22.56;85.28
22550;BME280;11441;57.164;-2.120;2022-08-11T10:01:44;101587.91;;;22.75;87.79
22550;BME280;11441;57.164;-2.120;2022-08-11T10:04:19;101587.91;;;22.75;88.70
22550;BME280;11441;57.164;-2.120;2022-08-11T10:06:49;101588.97;;;22.85;85.60
22550;BME280;11441;57.164;-2.120;2022-08-11T10:12:07;101575.00;;;23.15;83.80
22550;BME280;11441;57.164;-2.120;2022-08-11T10:14:37;101577.19;;;23.31;84.34
22550;BME280;11441;57.164;-2.120;2022-08-11T10:17:27;101573.63;;;23.27;86.41
22550;BME280;11441;57.164;-2.120;2022-08-11T10:20:15;101570.19;;;23.43;81.63
22550;BME280;11441;57.164;-2.120;2022-08-11T10:22:48;101566.06;;;23.51;81.56
22550;BME280;11441;57.164;-2.120;2022-08-11T10:25:35;101568.88;;;23.51;80.62
22550;BME280;11441;57.164;-2.120;2022-08-11T10:28:21;101571.91;;;23.64;80.82
22550;BME280;11441;57.164;-2.120;2022-08-11T10:31:05;101573.44;;;23.69;79.35
22550;BME280;11441;57.164;-2.120;2022-08-11T10:34:12;101563.78;;;23.70;77.43
22550;BME280;11441;57.164;-2.120;2022-08-11T10:36:42;101565.38;;;23.71;77.42
22550;BME280;11441;57.164;-2.120;2022-08-11T10:39:19;101574.09;;;23.53;79.09
22550;BME280;11441;57.164;-2.120;2022-08-11T10:41:47;101569.97;;;23.58;79.09
22550;BME280;11441;57.164;-2.120;2022-08-11T10:44:44;101575.97;;;23.60;80.35
22550;BME280;11441;57.164;-2.120;2022-08-11T10:47:13;101563.88;;;23.63;79.92
22550;BME280;11441;57.164;-2.120;2022-08-11T10:50:01;101566.38;;;23.57;79.87
22550;BME280;11441;57.164;-2.120;2022-08-11T10:52:49;101557.34;;;23.69;78.69
22550;BME280;11441;57.164;-2.120;2022-08-11T10:55:36;101563.88;;;23.63;79.33
22550;BME280;11441;57.164;-2.120;2022-08-11T10:58:43;101553.44;;;23.63;79.34
22550;BME280;11441;57.164;-2.120;2022-08-11T11:01:29;101554.84;;;23.75;76.71
22550;BME280;11441;57.164;-2.120;2022-08-11T11:04:00;101551.88;;;23.86;76.25
22550;BME280;11441;57.164;-2.120;2022-08-11T11:09:28;101547.88;;;23.87;74.55
22550;BME280;11441;57.164;-2.120;2022-08-11T11:15:04;101542.19;;;24.14;73.33
22550;BME280;11441;57.164;-2.120;2022-08-11T11:18:09;101522.38;;;24.21;72.09
22550;BME280;11441;57.164;-2.120;2022-08-11T11:20:55;101539.19;;;24.25;70.79
22550;BME280;11441;57.164;-2.120;2022-08-11T11:23:52;101534.38;;;24.45;70.20
22550;BME280;11441;57.164;-2.120;2022-08-11T11:32:17;101525.59;;;24.63;68.81
22550;BME280;11441;57.164;-2.120;2022-08-11T11:37:21;101513.44;;;24.46;68.28
22550;BME280;11441;57.164;-2.120;2022-08-11T11:39:49;101508.72;;;24.63;67.84
22550;BME280;11441;57.164;-2.120;2022-08-11T11:42:16;101516.22;;;24.70;68.10
22550;BME280;11441;57.164;-2.120;2022-08-11T11:44:45;101520.03;;;24.60;68.68
22550;BME280;11441;57.164;-2.120;2022-08-11T11:47:31;101514.78;;;24.38;67.65
22550;BME280;11441;57.164;-2.120;2022-08-11T11:49:59;101509.22;;;24.58;66.62
22550;BME280;11441;57.164;-2.120;2022-08-11T11:52:26;101514.53;;;24.73;68.22
22550;BME280;11441;57.164;-2.120;2022-08-11T11:54:55;101521.56;;;24.64;66.50
22550;BME280;11441;57.164;-2.120;2022-08-11T11:57:23;101516.16;;;24.74;66.78
22550;BME280;11441;57.164;-2.120;2022-08-11T12:00:25;101511.31;;;24.54;67.81
22550;BME280;11441;57.164;-2.120;2022-08-11T12:03:10;101507.09;;;24.62;66.48
22550;BME280;11441;57.164;-2.120;2022-08-11T12:05:41;101511.34;;;24.51;67.73
22550;BME280;11441;57.164;-2.120;2022-08-11T12:08:11;101510.94;;;24.72;66.10
22550;BME280;11441;57.164;-2.120;2022-08-11T12:10:53;101506.09;;;24.53;66.83
22550;BME280;11441;57.164;-2.120;2022-08-11T12:13:52;101496.69;;;24.39;67.73
22550;BME280;11441;57.164;-2.120;2022-08-11T12:16:22;101497.09;;;24.61;66.93
22550;BME280;11441;57.164;-2.120;2022-08-11T12:19:21;101496.22;;;24.21;68.46
22550;BME280;11441;57.164;-2.120;2022-08-11T12:21:50;101498.53;;;24.26;69.27
22550;BME280;11441;57.164;-2.120;2022-08-11T12:24:38;101497.13;;;24.38;69.31
22550;BME280;11441;57.164;-2.120;2022-08-11T12:27:26;101497.19;;;24.34;69.96
22550;BME280;11441;57.164;-2.120;2022-08-11T12:29:56;101495.28;;;24.27;70.04
22550;BME280;11441;57.164;-2.120;2022-08-11T12:32:26;101492.34;;;24.15;71.13
22550;BME280;11441;57.164;-2.120;2022-08-11T12:34:54;101485.84;;;23.70;73.61
22550;BME280;11441;57.164;-2.120;2022-08-11T12:37:29;101477.97;;;23.85;75.30
22550;BME280;11441;57.164;-2.120;2022-08-11T12:40:03;101481.03;;;23.95;74.03
22550;BME280;11441;57.164;-2.120;2022-08-11T12:43:14;101479.63;;;24.06;74.35
22550;BME280;11441;57.164;-2.120;2022-08-11T12:46:28;101478.88;;;24.46;72.43
22550;BME280;11441;57.164;-2.120;2022-08-11T12:48:58;101485.00;;;24.41;74.63
22550;BME280;11441;57.164;-2.120;2022-08-11T12:51:49;101482.84;;;24.69;73.50
22550;BME280;11441;57.164;-2.120;2022-08-11T12:57:42;101472.91;;;25.00;67.59
22550;BME280;11441;57.164;-2.120;2022-08-11T13:00:30;101479.09;;;25.12;68.13
22550;BME280;11441;57.164;-2.120;2022-08-11T13:03:20;101476.69;;;25.30;67.13
22550;BME280;11441;57.164;-2.120;2022-08-11T13:06:06;101468.50;;;25.36;66.04
22550;BME280;11441;57.164;-2.120;2022-08-11T13:08:36;101471.50;;;25.45;64.34
22550;BME280;11441;57.164;-2.120;2022-08-11T13:11:05;101463.94;;;25.58;64.60
22550;BME280;11441;57.164;-2.120;2022-08-11T13:14:11;101473.59;;;25.74;62.36
22550;BME280;11441;57.164;-2.120;2022-08-11T13:16:43;101466.63;;;25.95;62.16
22550;BME280;11441;57.164;-2.120;2022-08-11T13:19:30;101471.38;;;25.98;62.60
22550;BME280;11441;57.164;-2.120;2022-08-11T13:21:58;101462.16;;;25.65;63.88
22550;BME280;11441;57.164;-2.120;2022-08-11T13:24:26;101468.38;;;25.89;63.71
22550;BME280;11441;57.164;-2.120;2022-08-11T13:26:54;101468.91;;;26.00;63.53
22550;BME280;11441;57.164;-2.120;2022-08-11T13:29:24;101463.72;;;25.99;63.75
22550;BME280;11441;57.164;-2.120;2022-08-11T13:31:53;101474.00;;;26.05;62.82
22550;BME280;11441;57.164;-2.120;2022-08-11T13:34:23;101471.00;;;26.12;62.80
22550;BME280;11441;57.164;-2.120;2022-08-11T13:36:54;101465.09;;;26.07;63.82
22550;BME280;11441;57.164;-2.120;2022-08-11T13:39:25;101466.63;;;25.95;64.20
22550;BME280;11441;57.164;-2.120;2022-08-11T13:41:54;101472.00;;;26.06;64.79
22550;BME280;11441;57.164;-2.120;2022-08-11T13:44:25;101468.38;;;26.05;65.13
22550;BME280;11441;57.164;-2.120;2022-08-11T13:47:01;101460.16;;;26.11;65.21
22550;BME280;11441;57.164;-2.120;2022-08-11T13:49:31;101464.22;;;26.10;64.99
22550;BME280;11441;57.164;-2.120;2022-08-11T13:51:59;101462.13;;;25.98;65.05
22550;BME280;11441;57.164;-2.120;2022-08-11T13:54:30;101464.25;;;25.77;65.95
22550;BME280;11441;57.164;-2.120;2022-08-11T13:57:03;101461.47;;;25.90;67.00
22550;BME280;11441;57.164;-2.120;2022-08-11T13:59:52;101465.56;;;25.89;67.48
22550;BME280;11441;57.164;-2.120;2022-08-11T14:02:26;101454.56;;;25.78;67.18
22550;BME280;11441;57.164;-2.120;2022-08-11T14:05:02;101455.50;;;25.88;67.47
22550;BME280;11441;57.164;-2.120;2022-08-11T14:08:02;101452.78;;;26.01;67.87
22550;BME280;11441;57.164;-2.120;2022-08-11T14:10:33;101441.53;;;26.13;67.42
22550;BME280;11441;57.164;-2.120;2022-08-11T14:13:09;101449.94;;;25.84;67.37
22550;BME280;11441;57.164;-2.120;2022-08-11T14:16:32;101455.34;;;25.95;67.39
22550;BME280;11441;57.164;-2.120;2022-08-11T14:19:04;101449.97;;;26.01;67.35
22550;BME280;11441;57.164;-2.120;2022-08-11T14:21:36;101432.72;;;26.11;65.90
22550;BME280;11441;57.164;-2.120;2022-08-11T14:24:22;101435.22;;;26.09;65.63
22550;BME280;11441;57.164;-2.120;2022-08-11T14:26:50;101436.31;;;26.41;64.88
22550;BME280;11441;57.164;-2.120;2022-08-11T14:29:19;101433.41;;;26.45;63.95
22550;BME280;11441;57.164;-2.120;2022-08-11T14:31:49;101428.50;;;26.62;63.71
22550;BME280;11441;57.164;-2.120;2022-08-11T14:34:19;101426.38;;;26.79;62.84
22550;BME280;11441;57.164;-2.120;2022-08-11T14:36:55;101418.88;;;26.98;61.22
22550;BME280;11441;57.164;-2.120;2022-08-11T14:39:27;101417.88;;;27.17;60.67
22550;BME280;11441;57.164;-2.120;2022-08-11T14:41:57;101413.59;;;27.13;61.00
22550;BME280;11441;57.164;-2.120;2022-08-11T14:44:47;101423.53;;;27.17;62.22
22550;BME280;11441;57.164;-2.120;2022-08-11T14:47:36;101421.03;;;27.19;60.68
22550;BME280;11441;57.164;-2.120;2022-08-11T14:50:05;101436.31;;;27.35;60.58
22550;BME280;11441;57.164;-2.120;2022-08-11T14:53:00;101430.50;;;27.51;58.56
22550;BME280;11441;57.164;-2.120;2022-08-11T14:55:34;101419.38;;;27.70;60.29
22550;BME280;11441;57.164;-2.120;2022-08-11T14:58:23;101425.25;;;27.75;59.76
22550;BME280;11441;57.164;-2.120;2022-08-11T15:00:59;101420.47;;;27.85;59.33
22550;BME280;11441;57.164;-2.120;2022-08-11T15:03:29;101426.59;;;27.71;58.64
22550;BME280;11441;57.164;-2.120;2022-08-11T15:05:59;101420.34;;;27.54;59.17
22550;BME280;11441;57.164;-2.120;2022-08-11T15:08:30;101429.72;;;27.51;58.06
22550;BME280;11441;57.164;-2.120;2022-08-11T15:11:20;101426.16;;;27.72;56.59
22550;BME280;11441;57.164;-2.120;2022-08-11T15:14:07;101428.03;;;27.88;58.41
22550;BME280;11441;57.164;-2.120;2022-08-11T15:16:40;101427.78;;;27.60;57.21
22550;BME280;11441;57.164;-2.120;2022-08-11T15:19:46;101429.59;;;28.02;59.59
22550;BME280;11441;57.164;-2.120;2022-08-11T15:22:33;101432.75;;;28.04;59.08
22550;BME280;11441;57.164;-2.120;2022-08-11T15:25:19;101434.38;;;28.14;56.30
22550;BME280;11441;57.164;-2.120;2022-08-11T15:27:48;101435.47;;;28.08;55.81
22550;BME280;11441;57.164;-2.120;2022-08-11T15:30:36;101427.75;;;28.08;55.51
22550;BME280;11441;57.164;-2.120;2022-08-11T15:33:25;101435.66;;;28.13;55.85
22550;BME280;11441;57.164;-2.120;2022-08-11T15:36:13;101444.59;;;28.12;54.93
22550;BME280;11441;57.164;-2.120;2022-08-11T15:39:18;101446.13;;;27.91;55.94
22550;BME280;11441;57.164;-2.120;2022-08-11T15:42:13;101424.00;;;27.76;55.01
22550;BME280;11441;57.164;-2.120;2022-08-11T15:45:02;101446.13;;;27.56;56.46
22550;BME280;11441;57.164;-2.120;2022-08-11T15:47:51;101439.09;;;27.60;58.15
22550;BME280;11441;57.164;-2.120;2022-08-11T15:50:32;101450.31;;;27.51;58.05
22550;BME280;11441;57.164;-2.120;2022-08-11T15:53:08;101461.28;;;27.23;59.72
22550;BME280;11441;57.164;-2.120;2022-08-11T15:55:38;101470.34;;;27.18;61.26
22550;BME280;11441;57.164;-2.120;2022-08-11T15:58:07;101482.06;;;26.65;63.52
22550;BME280;11441;57.164;-2.120;2022-08-11T16:00:54;101477.56;;;26.81;62.89
22550;BME280;11441;57.164;-2.120;2022-08-11T16:03:48;101477.03;;;26.57;65.27
22550;BME280;11441;57.164;-2.120;2022-08-11T16:09:40;101495.31;;;26.23;69.79
22550;BME280;11441;57.164;-2.120;2022-08-11T16:12:22;101503.50;;;26.33;70.50
22550;BME280;11441;57.164;-2.120;2022-08-11T16:14:53;101491.13;;;26.14;71.38
22550;BME280;11441;57.164;-2.120;2022-08-11T16:18:01;101504.16;;;26.08;73.14
22550;BME280;11441;57.164;-2.120;2022-08-11T16:20:29;101505.41;;;25.91;73.01
22550;BME280;11441;57.164;-2.120;2022-08-11T16:23:03;101521.19;;;25.72;74.20
22550;BME280;11441;57.164;-2.120;2022-08-11T16:25:35;101532.03;;;24.84;77.46
22550;BME280;11441;57.164;-2.120;2022-08-11T16:28:41;101528.00;;;24.41;79.86
22550;BME280;11441;57.164;-2.120;2022-08-11T16:31:10;101524.34;;;24.44;79.85
22550;BME280;11441;57.164;-2.120;2022-08-11T16:33:39;101533.38;;;24.12;83.11
22550;BME280;11441;57.164;-2.120;2022-08-11T16:36:20;101540.84;;;23.99;87.63
22550;BME280;11441;57.164;-2.120;2022-08-11T16:39:09;101537.75;;;23.39;96.64
22550;BME280;11441;57.164;-2.120;2022-08-11T16:41:56;101548.38;;;23.78;97.63
22550;BME280;11441;57.164;-2.120;2022-08-11T16:45:15;101558.09;;;23.73;99.15
22550;BME280;11441;57.164;-2.120;2022-08-11T16:48:01;101568.34;;;23.33;99.53
22550;BME280;11441;57.164;-2.120;2022-08-11T16:50:49;101579.41;;;23.17;100.00
22550;BME280;11441;57.164;-2.120;2022-08-11T16:53:16;101601.91;;;22.78;100.00
22550;BME280;11441;57.164;-2.120;2022-08-11T16:55:47;101583.69;;;22.56;100.00
22550;BME280;11441;57.164;-2.120;2022-08-11T16:58:34;101584.59;;;22.46;99.03
22550;BME280;11441;57.164;-2.120;2022-08-11T17:01:23;101580.53;;;22.50;96.20
22550;BME280;11441;57.164;-2.120;2022-08-11T17:04:04;101582.03;;;22.58;92.84
22550;BME280;11441;57.164;-2.120;2022-08-11T17:06:56;101590.50;;;22.93;90.18
22550;BME280;11441;57.164;-2.120;2022-08-11T17:10:05;101586.63;;;22.79;89.26
22550;BME280;11441;57.164;-2.120;2022-08-11T17:13:56;101588.59;;;22.83;89.35